createdAt,value
2023-04-02T00:04:26.303Z,100.00
2023-04-02T00:09:37.223Z,100.00
2023-04-02T00:14:39.814Z,100.00
2023-04-02T00:19:49.881Z,100.00
2023-04-02T00:24:55.045Z,100.00
2023-04-02T00:29:59.343Z,100.00
2023-04-02T00:35:05.746Z,100.00
2023-04-02T00:40:16.580Z,100.00
2023-04-02T00:45:25.656Z,100.00
2023-04-02T00:50:35.134Z,100.00
2023-04-02T00:55:41.294Z,100.00
2023-04-02T01:00:50.332Z,100.00
2023-04-02T01:06:01.526Z,100.00
2023-04-02T01:11:14.761Z,100.00
2023-04-02T01:16:26.144Z,100.00
2023-04-02T01:21:47.113Z,100.00
2023-04-02T01:26:57.489Z,100.00
2023-04-02T01:32:04.583Z,100.00
2023-04-02T01:37:22.142Z,100.00
2023-04-02T01:42:31.904Z,100.00
2023-04-02T01:47:36.447Z,100.00
2023-04-02T01:52:42.047Z,100.00
2023-04-02T01:57:51.032Z,100.00
2023-04-02T02:02:55.651Z,100.00
2023-04-02T02:08:01.255Z,100.00
2023-04-02T02:13:04.601Z,100.00
2023-04-02T02:18:12.014Z,100.00
2023-04-02T02:23:15.289Z,100.00
2023-04-02T02:28:22.435Z,100.00
2023-04-02T02:33:31.565Z,100.00
2023-04-02T02:38:48.196Z,100.00
2023-04-02T02:44:01.615Z,100.00
2023-04-02T02:49:08.247Z,100.00
2023-04-02T02:54:11.416Z,100.00
2023-04-02T02:59:17.010Z,100.00
2023-04-02T03:04:24.290Z,100.00
2023-04-02T03:09:37.836Z,100.00
2023-04-02T03:14:45.300Z,100.00
2023-04-02T03:19:56.299Z,100.00
2023-04-02T03:25:06.079Z,100.00
2023-04-02T03:30:27.855Z,100.00
2023-04-02T03:35:38.766Z,100.00
2023-04-02T03:40:45.099Z,100.00
2023-04-02T03:45:52.665Z,100.00
2023-04-02T03:51:04.018Z,100.00
2023-04-02T03:56:07.766Z,100.00
2023-04-02T04:01:18.438Z,100.00
2023-04-02T04:06:27.640Z,100.00
2023-04-02T04:11:33.733Z,100.00
2023-04-02T04:16:46.193Z,100.00
2023-04-02T04:35:32.337Z,100.00
2023-04-02T04:40:45.174Z,100.00
2023-04-02T04:45:52.552Z,100.00
2023-04-02T04:51:03.328Z,100.00
2023-04-02T04:56:18.806Z,100.00
2023-04-02T05:01:30.174Z,100.00
2023-04-02T05:06:38.874Z,100.00
2023-04-02T05:11:46.585Z,100.00
2023-04-02T05:16:58.010Z,100.00
2023-04-02T05:22:13.694Z,100.00
2023-04-02T05:27:25.995Z,100.00
2023-04-02T05:32:35.537Z,100.00
2023-04-02T05:37:41.105Z,100.00
2023-04-02T05:42:49.199Z,100.00
2023-04-02T05:47:59.766Z,100.00
2023-04-02T05:53:17.090Z,100.00
2023-04-02T06:03:46.050Z,100.00
2023-04-02T06:08:57.795Z,100.00
2023-04-02T06:14:01.522Z,100.00
2023-04-02T06:19:08.465Z,100.00
2023-04-02T06:24:16.893Z,100.00
2023-04-02T06:29:27.486Z,100.00
2023-04-02T06:34:33.037Z,100.00
2023-04-02T06:39:41.981Z,100.00
2023-04-02T06:44:45.257Z,100.00
2023-04-02T06:50:23.590Z,100.00
2023-04-02T06:55:38.569Z,100.00
2023-04-02T07:00:43.327Z,100.00
2023-04-02T07:05:50.926Z,100.00
2023-04-02T07:10:56.128Z,100.00
2023-04-02T07:16:00.441Z,100.00
2023-04-02T07:21:03.711Z,100.00
2023-04-02T07:26:09.457Z,100.00
2023-04-02T07:31:17.808Z,100.00
2023-04-02T07:36:22.397Z,100.00
2023-04-02T07:41:27.451Z,100.00
2023-04-02T07:46:30.125Z,100.00
2023-04-02T07:51:32.803Z,100.00
2023-04-02T07:56:38.381Z,100.00
2023-04-02T08:01:43.039Z,100.00
2023-04-02T08:06:46.851Z,100.00
2023-04-02T08:11:51.056Z,100.00
2023-04-02T08:16:56.121Z,100.00
2023-04-02T08:21:58.930Z,100.00
2023-04-02T08:27:02.950Z,100.00
2023-04-02T08:32:05.880Z,100.00
2023-04-02T08:37:10.894Z,100.00
2023-04-02T08:42:23.292Z,100.00
2023-04-02T08:47:29.757Z,100.00
2023-04-02T08:52:35.738Z,100.00
2023-04-02T08:57:47.941Z,100.00
2023-04-02T09:02:56.209Z,100.00
2023-04-02T09:08:02.938Z,100.00
2023-04-02T09:13:16.534Z,100.00
2023-04-02T09:18:20.432Z,100.00
2023-04-02T09:23:25.937Z,100.00
2023-04-02T09:28:29.972Z,100.00
2023-04-02T09:33:44.810Z,100.00
2023-04-02T09:39:06.399Z,100.00
2023-04-02T09:44:20.635Z,100.00
2023-04-02T09:49:26.615Z,100.00
2023-04-02T09:54:29.837Z,100.00
2023-04-02T09:59:34.125Z,100.00
2023-04-02T10:04:44.260Z,100.00
2023-04-02T10:09:58.909Z,100.00
2023-04-02T10:15:05.992Z,100.00
2023-04-02T10:20:20.517Z,100.00
2023-04-02T10:25:29.814Z,100.00
2023-04-02T10:30:44.649Z,100.00
2023-04-02T10:35:56.351Z,100.00
2023-04-02T10:41:01.604Z,100.00
2023-04-02T10:46:11.487Z,100.00
2023-04-02T10:51:29.456Z,100.00
2023-04-02T10:56:44.127Z,100.00
2023-04-02T11:01:56.310Z,100.00
2023-04-02T11:07:13.251Z,100.00
2023-04-02T11:12:24.280Z,100.00
2023-04-02T11:17:28.451Z,100.00
2023-04-02T11:22:31.375Z,100.00
2023-04-02T11:27:35.260Z,100.00
2023-04-02T11:32:42.650Z,100.00
2023-04-02T11:37:46.615Z,100.00
2023-04-02T11:42:49.716Z,100.00
2023-04-02T11:48:30.493Z,100.00
2023-04-02T11:53:35.833Z,100.00
2023-04-02T11:58:52.937Z,100.00
2023-04-02T12:04:36.848Z,100.00
2023-04-02T12:09:47.567Z,100.00
2023-04-02T12:14:52.796Z,100.00
2023-04-02T12:19:58.316Z,100.00
2023-04-02T12:25:04.795Z,100.00
2023-04-02T12:30:17.708Z,100.00
2023-04-02T12:35:29.802Z,100.00
2023-04-02T12:40:34.257Z,100.00
2023-04-02T12:45:37.501Z,100.00
2023-04-02T12:50:41.684Z,100.00
2023-04-02T12:55:48.031Z,100.00
2023-04-02T13:00:50.730Z,100.00
2023-04-02T13:05:56.025Z,99.45
2023-04-02T13:11:02.605Z,99.29
2023-04-02T13:16:08.541Z,100.00
2023-04-02T13:21:28.352Z,98.85
2023-04-02T13:26:32.700Z,98.60
2023-04-02T13:31:35.321Z,97.63
2023-04-02T13:36:38.106Z,97.36
2023-04-02T13:41:45.253Z,96.28
2023-04-02T13:46:48.026Z,92.59
2023-04-02T13:51:52.290Z,95.31
2023-04-02T13:56:57.382Z,91.85
2023-04-02T14:02:07.023Z,89.26
2023-04-02T14:07:25.916Z,89.64
2023-04-02T14:12:41.939Z,88.77
2023-04-02T14:17:56.269Z,90.13
2023-04-02T14:23:22.976Z,87.90
2023-04-02T14:28:38.071Z,85.65
2023-04-02T14:33:50.345Z,87.30
2023-04-02T14:38:58.613Z,86.66
2023-04-02T14:44:05.251Z,87.28
2023-04-02T14:49:22.296Z,85.81
2023-04-02T14:54:32.499Z,86.22
2023-04-02T14:59:41.981Z,87.85
2023-04-02T15:04:47.497Z,87.92
2023-04-02T15:09:55.751Z,87.58
2023-04-02T15:15:09.505Z,87.19
2023-04-02T15:20:15.838Z,85.30
2023-04-02T15:25:29.636Z,84.84
2023-04-02T15:30:38.696Z,89.88
2023-04-02T15:35:48.383Z,86.26
2023-04-02T15:40:58.395Z,84.97
2023-04-02T15:46:13.352Z,86.43
2023-04-02T15:51:29.678Z,84.98
2023-04-02T15:56:41.475Z,86.16
2023-04-02T16:01:55.076Z,89.18
2023-04-02T16:07:13.287Z,88.80
2023-04-02T16:12:17.483Z,87.85
2023-04-02T16:17:28.174Z,86.52
2023-04-02T16:22:33.249Z,88.54
2023-04-02T16:27:42.256Z,86.69
2023-04-02T16:32:57.709Z,90.09
2023-04-02T16:38:09.702Z,90.70
2023-04-02T16:43:25.865Z,89.13
2023-04-02T16:48:40.640Z,87.99
2023-04-02T16:54:01.523Z,89.26
2023-04-02T16:59:18.864Z,94.75
2023-04-02T17:04:53.497Z,90.00
2023-04-02T17:10:03.061Z,91.20
2023-04-02T17:15:26.752Z,90.42
2023-04-02T17:20:32.972Z,91.05
2023-04-02T17:25:40.653Z,90.49
2023-04-02T17:30:48.679Z,90.37
2023-04-02T17:36:03.582Z,90.89
2023-04-02T17:41:16.735Z,92.90
2023-04-02T17:46:29.776Z,94.87
2023-04-02T17:51:41.366Z,100.00
2023-04-02T17:57:11.870Z,90.53
2023-04-02T18:02:30.350Z,91.79
2023-04-02T18:07:42.967Z,94.17
2023-04-02T18:12:57.026Z,92.42
2023-04-02T18:18:09.090Z,93.30
2023-04-02T18:23:24.939Z,91.20
2023-04-02T18:28:41.762Z,95.34
2023-04-02T18:34:13.072Z,95.76
2023-04-02T18:39:28.735Z,94.56
2023-04-02T18:44:49.320Z,95.00
2023-04-02T18:50:04.428Z,94.79
2023-04-02T18:55:17.755Z,95.49
2023-04-02T19:00:29.418Z,95.42
2023-04-02T19:05:40.507Z,93.99
2023-04-02T19:10:46.332Z,98.16
2023-04-02T19:16:24.139Z,96.44
2023-04-02T19:21:37.273Z,98.53
2023-04-02T19:26:50.011Z,100.00
2023-04-02T19:31:59.685Z,99.40
2023-04-02T19:37:09.501Z,98.99
2023-04-02T19:42:22.497Z,99.43
2023-04-02T19:47:25.309Z,97.76
2023-04-02T19:52:27.855Z,97.18
2023-04-02T19:57:31.804Z,100.00
2023-04-02T20:02:34.500Z,100.00
2023-04-02T20:07:37.154Z,100.00
2023-04-02T20:12:41.212Z,100.00
2023-04-02T20:17:43.911Z,100.00
2023-04-02T20:22:50.950Z,100.00
2023-04-02T20:27:55.431Z,100.00
2023-04-02T20:33:01.346Z,100.00
2023-04-02T20:38:07.471Z,100.00
2023-04-02T20:43:13.033Z,100.00
2023-04-02T20:48:16.646Z,100.00
2023-04-02T20:53:19.259Z,100.00
2023-04-02T20:58:23.782Z,100.00
2023-04-02T21:03:26.511Z,100.00
2023-04-02T21:08:29.076Z,100.00
2023-04-02T21:13:35.898Z,100.00
2023-04-02T21:18:38.462Z,100.00
2023-04-02T21:23:41.904Z,100.00
2023-04-02T21:28:46.775Z,100.00
2023-04-02T21:33:51.898Z,100.00
2023-04-02T21:38:56.435Z,100.00
2023-04-02T21:44:02.951Z,100.00
2023-04-02T21:49:08.132Z,100.00
2023-04-02T21:54:10.889Z,100.00
2023-04-02T21:59:17.280Z,100.00
2023-04-02T22:04:21.716Z,100.00
2023-04-02T22:09:26.190Z,100.00
2023-04-02T22:14:30.701Z,100.00
2023-04-02T22:19:33.276Z,100.00
2023-04-02T22:24:35.840Z,100.00
2023-04-02T22:29:39.704Z,100.00
2023-04-02T22:34:45.519Z,100.00
2023-04-02T22:39:48.246Z,100.00
2023-04-02T22:44:52.394Z,100.00
2023-04-02T22:49:55.033Z,100.00
2023-04-02T22:54:57.578Z,100.00
2023-04-02T23:00:01.554Z,100.00
2023-04-02T23:05:04.615Z,100.00
2023-04-02T23:10:08.125Z,100.00
2023-04-02T23:15:12.518Z,100.00
2023-04-02T23:20:15.285Z,100.00
2023-04-02T23:25:17.972Z,100.00
2023-04-02T23:30:22.073Z,100.00
2023-04-02T23:35:25.259Z,100.00
2023-04-02T23:40:27.826Z,100.00
2023-04-02T23:45:31.783Z,100.00
2023-04-02T23:50:34.919Z,100.00
2023-04-02T23:55:37.775Z,100.00
